Time;durP1;ratioP1;P1;durP2;ratioP2;P2;SDS_P1;SDS_P2;PMS_P1;PMS_P2;Temp;Humidity;BMP_temperature;BMP_pressure;BME280_temperature;BME280_humidity;BME280_pressure;Samples;Min_cycle;Max_cycle;Signal;HPM_P1;HPM_P2
2023/11/27 00:00:43;;;;;;;12.93;4.78;;;;;;;;;;6256354;28;20044;-77
2023/11/27 00:03:44;;;;;;;8.98;4.13;;;;;;;;;;6246655;28;20391;-77
2023/11/27 00:06:46;;;;;;;11.63;4.53;;;;;;;;;;6240649;28;20045;-79
2023/11/27 00:09:48;;;;;;;12.52;4.32;;;;;;;;;;6265810;28;20502;-78
2023/11/27 00:12:50;;;;;;;8.68;4.03;;;;;;;;;;6277468;28;20048;-78
2023/11/27 00:15:52;;;;;;;10.15;4.28;;;;;;;;;;6256919;28;20051;-79
2023/11/27 00:18:54;;;;;;;8.48;4.32;;;;;;;;;;6270877;28;20059;-78
2023/11/27 00:21:56;;;;;;;7.72;3.55;;;;;;;;;;6264842;28;20545;-78
2023/11/27 00:24:57;;;;;;;8.27;3.42;;;;;;;;;;6261302;28;20256;-79
2023/11/27 00:27:59;;;;;;;10.82;3.42;;;;;;;;;;6265975;28;20055;-79
2023/11/27 00:31:01;;;;;;;5.40;2.90;;;;;;;;;;6267602;28;20058;-78
2023/11/27 00:34:03;;;;;;;8.38;3.65;;;;;;;;;;6244962;28;20045;-77
2023/11/27 00:37:05;;;;;;;8.15;3.22;;;;;;;;;;6238666;28;20051;-77
2023/11/27 00:40:07;;;;;;;6.88;3.47;;;;;;;;;;6239123;28;20041;-78
2023/11/27 00:43:09;;;;;;;7.47;3.53;;;;;;;;;;6263210;28;20437;-77
2023/11/27 00:46:12;;;;;;;6.68;3.58;;;;;;;;;;6276068;28;20443;-77
2023/11/27 00:49:14;;;;;;;7.78;3.80;;;;;;;;;;6239114;28;20131;-77
2023/11/27 00:52:16;;;;;;;8.48;3.45;;;;;;;;;;6254125;28;20128;-77
2023/11/27 00:55:18;;;;;;;6.17;3.43;;;;;;;;;;6239274;28;20065;-77
2023/11/27 00:58:21;;;;;;;8.77;3.72;;;;;;;;;;6245355;28;20048;-77
2023/11/27 01:01:25;;;;;;;10.90;4.15;;;;;;;;;;6265688;28;20383;-77
2023/11/27 01:04:26;;;;;;;8.05;3.92;;;;;;;;;;6254061;28;20603;-77
2023/11/27 01:07:29;;;;;;;10.10;4.40;;;;;;;;;;6253875;28;20061;-77
2023/11/27 01:10:31;;;;;;;8.55;4.20;;;;;;;;;;6238469;28;20124;-77
2023/11/27 01:13:34;;;;;;;8.70;3.85;;;;;;;;;;6250016;28;20045;-76
2023/11/27 01:16:36;;;;;;;7.83;4.10;;;;;;;;;;6265305;28;20162;-78
2023/11/27 01:19:38;;;;;;;8.32;3.78;;;;;;;;;;6245392;28;20072;-78
2023/11/27 01:22:41;;;;;;;8.88;4.43;;;;;;;;;;6254804;28;20049;-78
2023/11/27 01:25:42;;;;;;;12.43;4.95;;;;;;;;;;6251221;28;20041;-77
2023/11/27 01:28:45;;;;;;;7.15;4.53;;;;;;;;;;6248579;28;20040;-77
2023/11/27 01:31:50;;;;;;;6.63;4.70;;;;;;;;;;6268530;28;20118;-78
2023/11/27 01:34:53;;;;;;;9.27;4.40;;;;;;;;;;6243037;28;20048;-77
2023/11/27 01:37:55;;;;;;;13.38;5.18;;;;;;;;;;6258929;28;20128;-78
2023/11/27 01:40:57;;;;;;;12.80;5.23;;;;;;;;;;6241809;28;20040;-77
2023/11/27 01:43:59;;;;;;;13.35;4.95;;;;;;;;;;6261500;28;20135;-77
2023/11/27 01:47:01;;;;;;;10.75;4.88;;;;;;;;;;6242297;28;20037;-78
2023/11/27 01:50:04;;;;;;;12.85;4.93;;;;;;;;;;6261338;28;20592;-78
2023/11/27 01:53:06;;;;;;;10.88;4.32;;;;;;;;;;6258998;28;20104;-77
2023/11/27 01:56:08;;;;;;;6.82;4.07;;;;;;;;;;6248827;28;20041;-77
2023/11/27 01:59:10;;;;;;;13.95;4.53;;;;;;;;;;6268080;28;20040;-77
2023/11/27 02:02:14;;;;;;;8.48;4.88;;;;;;;;;;6259143;28;20044;-77
2023/11/27 02:05:19;;;;;;;8.45;4.20;;;;;;;;;;6262867;28;20055;-77
2023/11/27 02:08:21;;;;;;;10.18;4.32;;;;;;;;;;6258876;28;20431;-78
2023/11/27 02:11:25;;;;;;;9.30;4.55;;;;;;;;;;6250033;28;20048;-78
2023/11/27 02:14:26;;;;;;;11.45;4.75;;;;;;;;;;6241556;28;20592;-77
2023/11/27 02:17:28;;;;;;;12.25;4.63;;;;;;;;;;6264579;28;20048;-77
2023/11/27 02:20:30;;;;;;;10.00;4.10;;;;;;;;;;6247457;28;20087;-77
2023/11/27 02:23:32;;;;;;;13.05;4.90;;;;;;;;;;6239655;28;20459;-78
2023/11/27 02:26:34;;;;;;;9.63;4.63;;;;;;;;;;6270396;28;20051;-77
2023/11/27 02:29:36;;;;;;;9.05;4.43;;;;;;;;;;6259566;28;20530;-77
2023/11/27 02:32:38;;;;;;;10.52;4.80;;;;;;;;;;6262621;28;20081;-77
2023/11/27 02:35:39;;;;;;;9.02;4.72;;;;;;;;;;6247027;28;20048;-77
2023/11/27 02:38:41;;;;;;;11.18;4.82;;;;;;;;;;6239324;28;20036;-77
2023/11/27 02:41:43;;;;;;;8.75;4.25;;;;;;;;;;6259209;28;20087;-77
2023/11/27 02:44:45;;;;;;;7.40;4.00;;;;;;;;;;6267058;28;20041;-77
2023/11/27 02:47:46;;;;;;;7.55;3.88;;;;;;;;;;6257939;28;20044;-77
2023/11/27 02:50:48;;;;;;;11.88;4.57;;;;;;;;;;6243643;28;20040;-77
2023/11/27 02:53:50;;;;;;;8.15;4.35;;;;;;;;;;6254687;28;20044;-78
2023/11/27 02:56:53;;;;;;;8.20;3.58;;;;;;;;;;6249443;28;20044;-77
2023/11/27 02:59:55;;;;;;;9.43;4.22;;;;;;;;;;6250099;28;20036;-77
2023/11/27 03:02:57;;;;;;;9.27;4.05;;;;;;;;;;6241740;28;20049;-79
2023/11/27 03:05:58;;;;;;;6.47;3.88;;;;;;;;;;6259253;28;20048;-77
2023/11/27 03:09:00;;;;;;;8.30;3.60;;;;;;;;;;6257300;28;20415;-77
2023/11/27 03:12:03;;;;;;;9.15;4.43;;;;;;;;;;6261542;28;20311;-78
2023/11/27 03:15:05;;;;;;;6.35;3.72;;;;;;;;;;6242670;28;20094;-77
2023/11/27 03:18:07;;;;;;;8.93;3.97;;;;;;;;;;6257342;28;20055;-76
2023/11/27 03:21:19;;;;;;;12.18;3.67;;;;;;;;;;6242489;28;20524;-77
2023/11/27 03:24:21;;;;;;;8.80;3.90;;;;;;;;;;6245337;28;20399;-77
2023/11/27 03:27:23;;;;;;;7.38;3.92;;;;;;;;;;6249337;28;20055;-76
2023/11/27 03:30:25;;;;;;;6.32;3.28;;;;;;;;;;6265494;28;20109;-76
2023/11/27 03:33:27;;;;;;;6.80;3.70;;;;;;;;;;6266406;28;20047;-77
2023/11/27 03:36:29;;;;;;;8.55;3.70;;;;;;;;;;6267217;28;20783;-78
2023/11/27 03:39:32;;;;;;;9.20;3.65;;;;;;;;;;6251926;28;20074;-78
2023/11/27 03:42:34;;;;;;;7.38;3.50;;;;;;;;;;6268317;28;20131;-77
2023/11/27 03:45:37;;;;;;;7.25;3.60;;;;;;;;;;6268213;28;20040;-77
2023/11/27 03:48:38;;;;;;;9.32;3.47;;;;;;;;;;6250398;28;20045;-77
2023/11/27 03:51:40;;;;;;;9.07;3.55;;;;;;;;;;6261759;28;20064;-77
2023/11/27 03:54:42;;;;;;;7.68;3.15;;;;;;;;;;6244315;28;20036;-77
2023/11/27 03:57:44;;;;;;;7.20;3.13;;;;;;;;;;6267768;28;20186;-77
2023/11/27 04:00:46;;;;;;;7.03;3.70;;;;;;;;;;6269231;28;20044;-76
2023/11/27 04:03:48;;;;;;;6.47;3.53;;;;;;;;;;6254275;28;20045;-77
2023/11/27 04:06:50;;;;;;;8.20;3.40;;;;;;;;;;6244874;28;20180;-77
2023/11/27 04:09:52;;;;;;;6.55;3.03;;;;;;;;;;6257937;28;20063;-77
2023/11/27 04:12:54;;;;;;;8.27;3.50;;;;;;;;;;6253330;28;20051;-77
2023/11/27 04:15:57;;;;;;;8.57;3.72;;;;;;;;;;6265147;28;20052;-76
2023/11/27 04:18:59;;;;;;;6.78;3.35;;;;;;;;;;6247835;28;20160;-78
2023/11/27 04:22:02;;;;;;;8.65;3.30;;;;;;;;;;6259243;28;20084;-78
2023/11/27 04:25:06;;;;;;;6.20;2.85;;;;;;;;;;6252294;28;20179;-79
2023/11/27 04:28:08;;;;;;;5.85;2.88;;;;;;;;;;6267129;28;20195;-78
2023/11/27 04:31:10;;;;;;;4.25;3.03;;;;;;;;;;6261328;28;20045;-79
2023/11/27 04:34:12;;;;;;;5.68;3.10;;;;;;;;;;6249063;28;20049;-79
2023/11/27 04:37:14;;;;;;;6.68;3.03;;;;;;;;;;6265973;28;20048;-79
2023/11/27 04:40:16;;;;;;;4.43;2.95;;;;;;;;;;6248939;28;20044;-79
2023/11/27 04:43:18;;;;;;;7.60;3.28;;;;;;;;;;6268467;28;20114;-78
2023/11/27 04:46:20;;;;;;;5.80;3.30;;;;;;;;;;6256824;28;20105;-78
2023/11/27 04:49:22;;;;;;;4.63;2.90;;;;;;;;;;6280434;28;20073;-78
2023/11/27 04:52:24;;;;;;;5.78;3.30;;;;;;;;;;6262568;28;20064;-78
2023/11/27 04:55:25;;;;;;;5.32;2.80;;;;;;;;;;6266037;28;20053;-77
2023/11/27 04:58:27;;;;;;;8.13;3.35;;;;;;;;;;6266377;28;20040;-78
2023/11/27 05:01:30;;;;;;;6.78;2.80;;;;;;;;;;6263743;28;20846;-78
2023/11/27 05:04:33;;;;;;;6.10;3.30;;;;;;;;;;6259614;28;20406;-78
2023/11/27 05:07:35;;;;;;;;;;;;;;;;;;6262854;28;20079;-77
2023/11/27 05:10:39;;;;;;;9.95;2.85;;;;;;;;;;6264353;28;19923;-78
2023/11/27 05:13:41;;;;;;;9.32;2.58;;;;;;;;;;6271934;28;20048;-77
2023/11/27 05:16:43;;;;;;;4.55;2.53;;;;;;;;;;6266606;28;20082;-77
2023/11/27 05:19:44;;;;;;;7.97;2.72;;;;;;;;;;6267078;28;20051;-77
2023/11/27 05:22:46;;;;;;;4.78;2.65;;;;;;;;;;6275930;28;20053;-77
2023/11/27 05:25:48;;;;;;;5.95;2.97;;;;;;;;;;6266906;28;20354;-77
2023/11/27 05:28:50;;;;;;;6.68;2.60;;;;;;;;;;6264916;28;20055;-77
2023/11/27 05:31:52;;;;;;;6.15;2.80;;;;;;;;;;6248380;28;20053;-78
2023/11/27 05:34:53;;;;;;;4.97;2.33;;;;;;;;;;6253406;28;20090;-77
2023/11/27 05:37:55;;;;;;;6.70;2.72;;;;;;;;;;6270974;28;20056;-77
2023/11/27 05:40:58;;;;;;;6.70;2.83;;;;;;;;;;6274832;28;20047;-76
2023/11/27 05:44:02;;;;;;;4.70;2.55;;;;;;;;;;6278536;28;20055;-79
2023/11/27 05:47:04;;;;;;;7.20;2.78;;;;;;;;;;6253442;28;20056;-77
2023/11/27 05:50:09;;;;;;;4.63;2.53;;;;;;;;;;6250147;28;20044;-77
2023/11/27 05:53:12;;;;;;;5.57;2.67;;;;;;;;;;6259122;28;20126;-77
2023/11/27 05:56:14;;;;;;;7.03;2.73;;;;;;;;;;6250022;28;20086;-76
2023/11/27 05:59:16;;;;;;;6.72;2.75;;;;;;;;;;6248925;28;20048;-78
2023/11/27 06:02:18;;;;;;;6.20;2.63;;;;;;;;;;6243205;28;20147;-80
2023/11/27 06:05:20;;;;;;;11.40;2.58;;;;;;;;;;6259040;28;20047;-80
2023/11/27 06:08:22;;;;;;;9.90;3.63;;;;;;;;;;6252691;28;20060;-77
2023/11/27 06:11:23;;;;;;;4.20;2.30;;;;;;;;;;6245410;28;20059;-77
2023/11/27 06:14:25;;;;;;;6.68;2.22;;;;;;;;;;6247376;28;20059;-79
2023/11/27 06:17:27;;;;;;;11.65;4.07;;;;;;;;;;6247881;28;20045;-78
2023/11/27 06:20:28;;;;;;;6.78;2.70;;;;;;;;;;6264182;28;20245;-78
2023/11/27 06:23:30;;;;;;;5.30;2.60;;;;;;;;;;6251649;28;20052;-79
2023/11/27 06:26:32;;;;;;;16.52;6.43;;;;;;;;;;6260646;28;20164;-79
2023/11/27 06:29:37;;;;;;;8.73;4.25;;;;;;;;;;6269086;28;20063;-78
2023/11/27 06:32:42;;;;;;;4.85;2.50;;;;;;;;;;6252765;28;20048;-79
2023/11/27 06:35:44;;;;;;;6.03;2.35;;;;;;;;;;6251369;28;20055;-79
2023/11/27 06:38:46;;;;;;;3.75;2.40;;;;;;;;;;6259657;28;20072;-78
2023/11/27 06:41:48;;;;;;;8.43;2.58;;;;;;;;;;6259956;28;20498;-78
2023/11/27 06:44:50;;;;;;;4.35;2.47;;;;;;;;;;6275312;28;20135;-80
2023/11/27 06:47:52;;;;;;;5.50;2.17;;;;;;;;;;6274219;28;20055;-78
2023/11/27 06:50:54;;;;;;;5.20;2.63;;;;;;;;;;6268929;28;20044;-79
2023/11/27 06:53:56;;;;;;;5.47;2.23;;;;;;;;;;6246207;28;20052;-79
2023/11/27 06:56:58;;;;;;;5.85;2.33;;;;;;;;;;6247180;28;20060;-79
2023/11/27 06:59:59;;;;;;;6.00;2.20;;;;;;;;;;6258391;28;20041;-79
2023/11/27 07:03:03;;;;;;;8.77;4.10;;;;;;;;;;6258454;28;20531;-79
2023/11/27 07:06:06;;;;;;;13.20;5.03;;;;;;;;;;6244661;28;20147;-78
2023/11/27 07:09:07;;;;;;;7.28;2.13;;;;;;;;;;6255400;28;20045;-79
2023/11/27 07:12:09;;;;;;;5.65;2.58;;;;;;;;;;6247602;28;20056;-79
2023/11/27 07:15:11;;;;;;;5.00;2.92;;;;;;;;;;6249356;28;20052;-82
2023/11/27 07:18:13;;;;;;;5.97;2.47;;;;;;;;;;6260993;28;20049;-80
2023/11/27 07:21:21;;;;;;;4.90;3.10;;;;;;;;;;6255164;28;20079;-79
2023/11/27 07:24:23;;;;;;;4.80;2.90;;;;;;;;;;6242105;28;20208;-79
2023/11/27 07:27:26;;;;;;;5.28;2.65;;;;;;;;;;6249476;28;20049;-77
2023/11/27 07:30:30;;;;;;;6.18;2.70;;;;;;;;;;6249253;28;20058;-80
2023/11/27 07:33:33;;;;;;;6.38;3.00;;;;;;;;;;6244951;28;20052;-78
2023/11/27 07:36:36;;;;;;;;;;;;;;;;;;6241599;28;20098;-79
2023/11/27 07:39:39;;;;;;;8.93;3.17;;;;;;;;;;6259812;28;19968;-78
2023/11/27 07:42:42;;;;;;;8.95;2.88;;;;;;;;;;6246743;28;20082;-79
2023/11/27 07:45:45;;;;;;;;;;;;;;;;;;6258560;28;20529;-78
2023/11/27 07:48:47;;;;;;;4.32;2.95;;;;;;;;;;6239267;28;19921;-79
2023/11/27 07:51:48;;;;;;;4.90;2.97;;;;;;;;;;6252789;28;20098;-78
2023/11/27 07:54:51;;;;;;;6.15;2.92;;;;;;;;;;6256110;28;20040;-78
2023/11/27 07:57:52;;;;;;;5.80;3.60;;;;;;;;;;6264093;28;21140;-80
2023/11/27 08:00:55;;;;;;;7.03;3.05;;;;;;;;;;6258068;28;20514;-82
2023/11/27 08:03:57;;;;;;;6.85;3.75;;;;;;;;;;6250621;28;20040;-79
2023/11/27 08:07:00;;;;;;;7.68;3.30;;;;;;;;;;6266634;28;20107;-82
2023/11/27 08:10:03;;;;;;;8.50;2.80;;;;;;;;;;6267660;28;20040;-78
2023/11/27 08:13:05;;;;;;;6.88;3.10;;;;;;;;;;6243982;28;20128;-80
2023/11/27 08:16:08;;;;;;;12.20;4.18;;;;;;;;;;6256876;28;20048;-82
2023/11/27 08:19:13;;;;;;;5.38;3.42;;;;;;;;;;6250906;28;20498;-78
2023/11/27 08:22:15;;;;;;;11.15;4.45;;;;;;;;;;6247096;28;20123;-80
2023/11/27 08:25:22;;;;;;;9.25;4.95;;;;;;;;;;6266599;22;22043;-84
2023/11/27 08:36:06;;;;;;;7.13;3.35;;;;;;;;;;6288980;27;20133;-85
2023/11/27 08:39:10;;;;;;;8.23;4.22;;;;;;;;;;6245874;28;20056;-82
2023/11/27 08:42:12;;;;;;;5.95;3.95;;;;;;;;;;6268143;28;20045;-82
2023/11/27 08:45:18;;;;;;;8.55;4.18;;;;;;;;;;6255624;28;20222;-83
2023/11/27 08:48:20;;;;;;;5.55;3.65;;;;;;;;;;6265521;28;20060;-85
2023/11/27 08:51:21;;;;;;;6.93;4.07;;;;;;;;;;6258905;28;20097;-85
2023/11/27 08:54:24;;;;;;;6.53;3.40;;;;;;;;;;6237344;28;20045;-84
2023/11/27 08:57:26;;;;;;;7.63;3.55;;;;;;;;;;6241441;28;20041;-83
2023/11/27 09:00:31;;;;;;;4.22;3.10;;;;;;;;;;6254747;28;20052;-81
2023/11/27 09:03:32;;;;;;;5.35;3.50;;;;;;;;;;6263650;28;20048;-82
2023/11/27 09:06:34;;;;;;;5.28;3.38;;;;;;;;;;6242200;28;20408;-85
2023/11/27 09:09:36;;;;;;;6.15;3.15;;;;;;;;;;6263051;28;20527;-85
2023/11/27 09:12:38;;;;;;;8.48;3.20;;;;;;;;;;6262411;28;20187;-85
2023/11/27 09:15:41;;;;;;;3.90;3.22;;;;;;;;;;6249373;28;20045;-85
2023/11/27 09:18:43;;;;;;;5.05;3.22;;;;;;;;;;6267454;28;20045;-82
2023/11/27 09:21:45;;;;;;;3.85;2.90;;;;;;;;;;6263370;28;20046;-83
2023/11/27 09:24:48;;;;;;;4.72;2.83;;;;;;;;;;6265085;28;20045;-83
2023/11/27 09:27:50;;;;;;;4.22;2.50;;;;;;;;;;6266789;28;20052;-80
2023/11/27 09:30:52;;;;;;;2.70;2.22;;;;;;;;;;6254805;28;20049;-84
2023/11/27 09:33:53;;;;;;;3.83;2.10;;;;;;;;;;6260239;28;20045;-84
2023/11/27 09:36:55;;;;;;;4.13;2.40;;;;;;;;;;6263183;28;20048;-85
2023/11/27 09:40:08;;;;;;;3.15;2.20;;;;;;;;;;6250864;28;20111;-85
2023/11/27 09:43:10;;;;;;;3.55;2.70;;;;;;;;;;6259238;28;20076;-84
2023/11/27 09:46:18;;;;;;;2.83;1.92;;;;;;;;;;6246194;28;20103;-85
2023/11/27 09:49:24;;;;;;;12.38;4.32;;;;;;;;;;6226896;28;20112;-85
2023/11/27 09:52:35;;;;;;;5.68;2.97;;;;;;;;;;6248513;28;20076;-85
2023/11/27 09:55:38;;;;;;;1.88;1.70;;;;;;;;;;6241729;28;20049;-86
2023/11/27 09:58:43;;;;;;;2.10;1.60;;;;;;;;;;6241760;28;20084;-85
2023/11/27 10:01:46;;;;;;;2.17;1.77;;;;;;;;;;6246871;28;20037;-85
2023/11/27 10:04:49;;;;;;;3.10;1.98;;;;;;;;;;6235279;28;20053;-84
2023/11/27 10:07:52;;;;;;;2.35;2.00;;;;;;;;;;6245996;28;20049;-85
2023/11/27 10:10:56;;;;;;;5.57;3.33;;;;;;;;;;6246462;28;20045;-84
2023/11/27 10:14:01;;;;;;;3.08;2.33;;;;;;;;;;6242128;28;20124;-85
2023/11/27 10:17:06;;;;;;;3.28;2.47;;;;;;;;;;6245321;28;20133;-83
2023/11/27 10:20:12;;;;;;;2.77;2.20;;;;;;;;;;6247997;28;20042;-83
2023/11/27 10:23:15;;;;;;;4.57;2.40;;;;;;;;;;6251545;28;20056;-83
2023/11/27 10:26:19;;;;;;;9.15;5.55;;;;;;;;;;6251732;28;20041;-83
2023/11/27 10:29:29;;;;;;;5.78;4.22;;;;;;;;;;6248770;28;20095;-85
2023/11/27 10:32:31;;;;;;;7.57;4.32;;;;;;;;;;6246614;28;20053;-84
2023/11/27 10:35:33;;;;;;;1.85;1.52;;;;;;;;;;6243048;28;20051;-85
2023/11/27 10:38:36;;;;;;;5.93;3.47;;;;;;;;;;6227433;28;20362;-80
2023/11/27 10:41:43;;;;;;;3.60;3.30;;;;;;;;;;6246726;28;20060;-83
2023/11/27 10:44:48;;;;;;;3.53;2.75;;;;;;;;;;6218284;28;20504;-85
2023/11/27 10:47:51;;;;;;;2.33;2.13;;;;;;;;;;6202220;28;20050;-86
2023/11/27 10:50:54;;;;;;;2.63;2.35;;;;;;;;;;6207278;28;20052;-87
2023/11/27 10:53:58;;;;;;;1.58;1.48;;;;;;;;;;6202687;28;20787;-83
2023/11/27 10:57:06;;;;;;;14.27;6.53;;;;;;;;;;6213640;28;20038;-83
2023/11/27 11:00:08;;;;;;;2.78;1.80;;;;;;;;;;6223939;28;20527;-83
2023/11/27 11:03:23;;;;;;;14.38;9.20;;;;;;;;;;6208864;28;20048;-83
2023/11/27 11:06:26;;;;;;;1.48;1.38;;;;;;;;;;6222911;28;20054;-83
2023/11/27 11:09:29;;;;;;;4.03;2.80;;;;;;;;;;6240408;28;20052;-82
2023/11/27 11:12:32;;;;;;;4.75;3.13;;;;;;;;;;6239489;28;20052;-83
2023/11/27 11:16:08;;;;;;;4.85;2.70;;;;;;;;;;6244037;28;20052;-82
2023/11/27 11:19:21;;;;;;;5.50;3.35;;;;;;;;;;6235925;28;20041;-83
2023/11/27 11:22:43;;;;;;;4.72;3.10;;;;;;;;;;6227556;28;20046;-84
2023/11/27 11:25:51;;;;;;;7.65;5.50;;;;;;;;;;6245786;28;20060;-83
2023/11/27 11:29:11;;;;;;;31.13;17.85;;;;;;;;;;6239258;28;20049;-84
2023/11/27 11:32:16;;;;;;;17.15;12.52;;;;;;;;;;6240446;28;20088;-84
2023/11/27 11:35:18;;;;;;;10.52;7.53;;;;;;;;;;6241454;28;20045;-81
2023/11/27 11:38:21;;;;;;;9.20;5.65;;;;;;;;;;6216270;28;20054;-84
2023/11/27 11:41:24;;;;;;;5.10;3.30;;;;;;;;;;6220410;28;20059;-81
2023/11/27 11:44:28;;;;;;;11.70;6.43;;;;;;;;;;6243317;28;20452;-85
2023/11/27 11:47:34;;;;;;;6.25;4.15;;;;;;;;;;6250037;28;20489;-87
2023/11/27 11:50:43;;;;;;;6.00;4.68;;;;;;;;;;6250665;28;20496;-82
2023/11/27 11:53:47;;;;;;;4.85;2.15;;;;;;;;;;6242517;28;20048;-84
2023/11/27 11:56:49;;;;;;;3.17;2.20;;;;;;;;;;6241614;28;20128;-84
2023/11/27 11:59:52;;;;;;;6.45;4.00;;;;;;;;;;6245071;28;20053;-84
2023/11/27 12:02:56;;;;;;;5.50;2.93;;;;;;;;;;6241977;28;20524;-84
2023/11/27 12:06:02;;;;;;;6.82;3.72;;;;;;;;;;6245492;28;20041;-84
2023/11/27 12:09:04;;;;;;;3.58;1.98;;;;;;;;;;6262162;28;20044;-85
2023/11/27 12:12:06;;;;;;;30.88;14.30;;;;;;;;;;6232090;28;20041;-86
2023/11/27 12:15:11;;;;;;;43.22;16.73;;;;;;;;;;6233720;28;20045;-85
2023/11/27 12:18:12;;;;;;;13.80;4.85;;;;;;;;;;6250537;28;20052;-86
2023/11/27 12:21:17;;;;;;;39.57;18.97;;;;;;;;;;6231381;28;20389;-86
2023/11/27 12:24:19;;;;;;;5.85;3.83;;;;;;;;;;6237875;28;20053;-86
2023/11/27 12:27:22;;;;;;;5.72;3.00;;;;;;;;;;6253447;28;20045;-83
2023/11/27 12:30:24;;;;;;;9.18;5.65;;;;;;;;;;6237931;28;20045;-85
2023/11/27 12:33:27;;;;;;;2.13;1.80;;;;;;;;;;6233000;28;20049;-84
2023/11/27 12:36:30;;;;;;;;;;;;;;;;;;6246320;28;20124;-87
2023/11/27 12:39:32;;;;;;;3.97;1.93;;;;;;;;;;6226018;28;19925;-87
2023/11/27 12:42:36;;;;;;;4.72;3.80;;;;;;;;;;6223263;28;20045;-87
2023/11/27 12:45:38;;;;;;;5.40;3.30;;;;;;;;;;6224377;28;20213;-86
2023/11/27 12:48:43;;;;;;;3.67;2.88;;;;;;;;;;6240891;28;20041;-86
2023/11/27 12:51:45;;;;;;;3.42;1.40;;;;;;;;;;6218170;28;20038;-86
2023/11/27 12:54:54;;;;;;;3.75;1.92;;;;;;;;;;6245739;28;20041;-85
2023/11/27 12:57:57;;;;;;;4.88;2.22;;;;;;;;;;6238916;28;20056;-86
2023/11/27 13:01:00;;;;;;;4.82;3.20;;;;;;;;;;6226252;28;20060;-85
2023/11/27 13:04:04;;;;;;;2.30;1.70;;;;;;;;;;6213612;28;20046;-84
2023/11/27 13:07:09;;;;;;;16.50;5.60;;;;;;;;;;6246854;28;20700;-82
2023/11/27 13:10:11;;;;;;;2.30;1.67;;;;;;;;;;6248241;28;20052;-86
2023/11/27 13:13:20;;;;;;;7.32;3.03;;;;;;;;;;6245414;28;20029;-83
2023/11/27 13:16:23;;;;;;;7.45;3.03;;;;;;;;;;6228104;28;20190;-82
2023/11/27 13:19:25;;;;;;;1.70;1.45;;;;;;;;;;6225733;28;20067;-90
2023/11/27 13:22:31;;;;;;;1.67;1.27;;;;;;;;;;6236497;28;20079;-82
2023/11/27 13:25:35;;;;;;;2.10;1.90;;;;;;;;;;6223162;28;20049;-83
2023/11/27 13:28:42;;;;;;;18.95;6.38;;;;;;;;;;6220356;28;20037;-82
2023/11/27 13:31:44;;;;;;;2.95;2.65;;;;;;;;;;6196020;28;20069;-85
2023/11/27 13:34:55;;;;;;;2.15;1.83;;;;;;;;;;6215309;28;20653;-83
2023/11/27 13:38:04;;;;;;;3.25;2.85;;;;;;;;;;6221544;28;20045;-82
2023/11/27 13:41:10;;;;;;;4.78;2.90;;;;;;;;;;6242089;28;20056;-81
2023/11/27 13:44:17;;;;;;;1.60;1.50;;;;;;;;;;6223276;28;20042;-80
2023/11/27 13:47:21;;;;;;;4.03;2.53;;;;;;;;;;6210208;28;20054;-82
2023/11/27 13:50:23;;;;;;;9.80;3.95;;;;;;;;;;6236541;28;20046;-83
2023/11/27 13:53:25;;;;;;;2.42;1.90;;;;;;;;;;6227019;28;20370;-82
2023/11/27 13:56:30;;;;;;;2.63;1.60;;;;;;;;;;6241413;28;20045;-83
2023/11/27 13:59:40;;;;;;;5.97;3.40;;;;;;;;;;6222644;28;20056;-82
2023/11/27 14:02:41;;;;;;;9.00;4.28;;;;;;;;;;6243452;28;20056;-83
2023/11/27 14:05:46;;;;;;;7.82;3.13;;;;;;;;;;6204164;28;20057;-82
2023/11/27 14:09:03;;;;;;;8.30;4.32;;;;;;;;;;6232699;28;20350;-82
2023/11/27 14:12:10;;;;;;;9.50;3.70;;;;;;;;;;6248490;28;20484;-80
2023/11/27 14:15:21;;;;;;;6.35;3.47;;;;;;;;;;6236379;28;20105;-80
2023/11/27 14:24:49;;;;;;;4.05;2.03;;;;;;;;;;6233524;28;20060;-81
2023/11/27 14:31:12;;;;;;;1.63;1.10;;;;;;;;;;6228138;28;20117;-82
2023/11/27 14:34:15;;;;;;;2.40;1.60;;;;;;;;;;6248249;28;20041;-81
2023/11/27 14:37:19;;;;;;;2.72;1.50;;;;;;;;;;6238943;28;20721;-80
2023/11/27 14:40:22;;;;;;;2.58;1.80;;;;;;;;;;6233990;28;20045;-82
2023/11/27 14:43:29;;;;;;;;;;;;;;;;;;6205565;28;20045;-82
2023/11/27 14:46:30;;;;;;;7.00;3.60;;;;;;;;;;6208158;28;19932;-84
2023/11/27 14:49:32;;;;;;;8.73;5.93;;;;;;;;;;6205210;28;20125;-79
2023/11/27 14:52:34;;;;;;;6.97;4.85;;;;;;;;;;6229692;28;20056;-81
2023/11/27 14:55:37;;;;;;;4.30;2.55;;;;;;;;;;6233941;28;20183;-81
2023/11/27 14:58:40;;;;;;;6.57;4.55;;;;;;;;;;6228642;28;20053;-80
2023/11/27 15:01:42;;;;;;;6.45;4.03;;;;;;;;;;6223145;28;20044;-82
2023/11/27 15:04:45;;;;;;;8.93;5.40;;;;;;;;;;6234866;28;20504;-80
2023/11/27 15:07:48;;;;;;;4.47;2.53;;;;;;;;;;6233146;28;20037;-81
2023/11/27 15:10:50;;;;;;;12.05;5.88;;;;;;;;;;6236671;28;20745;-81
2023/11/27 15:13:55;;;;;;;9.13;5.78;;;;;;;;;;6231673;28;20052;-82
2023/11/27 15:16:58;;;;;;;10.13;4.88;;;;;;;;;;6234596;28;20045;-80
2023/11/27 15:20:00;;;;;;;7.75;6.07;;;;;;;;;;6234213;28;20064;-84
2023/11/27 15:23:06;;;;;;;6.63;5.45;;;;;;;;;;6240762;28;20041;-86
2023/11/27 15:26:09;;;;;;;5.38;3.78;;;;;;;;;;6241211;28;20064;-83
2023/11/27 15:29:16;;;;;;;;;;;;;;;;;;6240909;28;20107;-82
2023/11/27 15:32:20;;;;;;;20.63;10.98;;;;;;;;;;6211394;28;19921;-84
2023/11/27 15:35:24;;;;;;;9.55;3.85;;;;;;;;;;6220625;28;20045;-83
2023/11/27 15:38:26;;;;;;;15.70;6.03;;;;;;;;;;6215995;28;20216;-83
2023/11/27 15:41:31;;;;;;;16.50;6.95;;;;;;;;;;6250218;28;20420;-83
2023/11/27 15:44:35;;;;;;;14.55;8.00;;;;;;;;;;6253707;28;20412;-83
2023/11/27 15:47:37;;;;;;;11.07;6.40;;;;;;;;;;6235560;28;20416;-81
2023/11/27 15:50:39;;;;;;;8.00;5.03;;;;;;;;;;6238507;28;20172;-83
2023/11/27 15:53:41;;;;;;;5.18;2.80;;;;;;;;;;6234123;28;20049;-83
2023/11/27 15:56:42;;;;;;;6.55;3.42;;;;;;;;;;6234819;28;20361;-83
2023/11/27 15:59:45;;;;;;;7.00;3.88;;;;;;;;;;6233276;28;20046;-82
2023/11/27 16:02:52;;;;;;;5.97;3.72;;;;;;;;;;6230966;28;20114;-83
2023/11/27 16:05:54;;;;;;;10.45;5.28;;;;;;;;;;6219650;28;20511;-83
2023/11/27 16:08:56;;;;;;;8.73;5.22;;;;;;;;;;6223990;28;20049;-84
2023/11/27 16:11:58;;;;;;;5.75;4.05;;;;;;;;;;6220329;28;20049;-83
2023/11/27 16:15:00;;;;;;;5.13;3.60;;;;;;;;;;6225255;28;20173;-83
2023/11/27 16:18:06;;;;;;;6.60;5.28;;;;;;;;;;6235509;28;20408;-82
2023/11/27 16:21:11;;;;;;;3.95;2.65;;;;;;;;;;6200582;28;20060;-84
2023/11/27 16:24:14;;;;;;;4.25;3.08;;;;;;;;;;6229959;28;20053;-82
2023/11/27 16:27:16;;;;;;;6.53;4.43;;;;;;;;;;6216198;28;20050;-83
2023/11/27 16:30:20;;;;;;;16.60;7.38;;;;;;;;;;6201598;28;20054;-82
2023/11/27 16:33:24;;;;;;;18.67;6.82;;;;;;;;;;6234477;28;20057;-84
2023/11/27 16:36:26;;;;;;;12.13;5.53;;;;;;;;;;6221121;28;20084;-83
2023/11/27 16:39:28;;;;;;;14.05;7.97;;;;;;;;;;6232468;28;20405;-82
2023/11/27 16:42:29;;;;;;;18.90;8.40;;;;;;;;;;6226145;28;20049;-82
2023/11/27 16:45:31;;;;;;;32.63;12.57;;;;;;;;;;6232911;28;20046;-83
2023/11/27 16:48:34;;;;;;;25.60;8.93;;;;;;;;;;6231983;28;20049;-82
2023/11/27 16:51:36;;;;;;;25.48;10.18;;;;;;;;;;6239340;28;20429;-81
2023/11/27 16:54:37;;;;;;;60.42;21.67;;;;;;;;;;6215605;28;20064;-83
2023/11/27 16:57:39;;;;;;;34.03;14.10;;;;;;;;;;6230343;28;20041;-81
2023/11/27 17:00:42;;;;;;;34.50;13.00;;;;;;;;;;6233738;28;20078;-82
2023/11/27 17:03:47;;;;;;;15.25;9.60;;;;;;;;;;6231784;28;20536;-81
2023/11/27 17:06:49;;;;;;;7.57;5.78;;;;;;;;;;6240522;28;20045;-82
2023/11/27 17:09:52;;;;;;;9.25;5.82;;;;;;;;;;6256998;28;20045;-82
2023/11/27 17:12:57;;;;;;;6.80;4.70;;;;;;;;;;6239780;28;20489;-82
2023/11/27 17:15:58;;;;;;;8.98;4.85;;;;;;;;;;6233969;28;20045;-82
2023/11/27 17:19:00;;;;;;;37.17;13.13;;;;;;;;;;6232139;28;20095;-84
2023/11/27 17:22:02;;;;;;;21.58;8.35;;;;;;;;;;6243291;28;20416;-84
2023/11/27 17:25:06;;;;;;;7.35;4.90;;;;;;;;;;6252025;28;20092;-84
2023/11/27 17:28:11;;;;;;;;;;;;;;;;;;6240264;28;20071;-86
2023/11/27 17:31:13;;;;;;;9.30;5.45;;;;;;;;;;6227286;28;19959;-84
2023/11/27 17:34:15;;;;;;;14.48;6.95;;;;;;;;;;6221121;28;20046;-85
2023/11/27 17:37:18;;;;;;;34.55;12.35;;;;;;;;;;6217251;28;20046;-85
2023/11/27 17:40:20;;;;;;;85.40;28.63;;;;;;;;;;6220246;28;20066;-85
2023/11/27 17:43:21;;;;;;;13.15;6.43;;;;;;;;;;6210117;28;20165;-83
2023/11/27 17:46:23;;;;;;;17.33;7.30;;;;;;;;;;6194336;28;20057;-85
2023/11/27 17:49:27;;;;;;;11.40;5.05;;;;;;;;;;6210256;28;20065;-85
2023/11/27 17:52:28;;;;;;;12.23;6.28;;;;;;;;;;6232183;28;20069;-86
2023/11/27 17:55:31;;;;;;;37.55;14.27;;;;;;;;;;6202770;28;20041;-83
2023/11/27 17:58:45;;;;;;;19.27;9.85;;;;;;;;;;6207503;28;20180;-86
2023/11/27 18:01:47;;;;;;;12.00;7.72;;;;;;;;;;6229640;28;20037;-84
2023/11/27 18:04:49;;;;;;;9.52;5.15;;;;;;;;;;6242793;28;20045;-85
2023/11/27 18:07:56;;;;;;;7.47;4.80;;;;;;;;;;6242221;28;20050;-86
2023/11/27 18:10:59;;;;;;;8.18;4.60;;;;;;;;;;6225320;28;20080;-83
2023/11/27 18:14:00;;;;;;;7.70;4.60;;;;;;;;;;6242245;28;20057;-85
2023/11/27 18:17:03;;;;;;;7.20;4.50;;;;;;;;;;6228163;28;20041;-83
2023/11/27 18:20:08;;;;;;;19.95;9.23;;;;;;;;;;6240109;28;20056;-85
2023/11/27 18:23:10;;;;;;;16.98;7.85;;;;;;;;;;6246996;28;20045;-85
2023/11/27 18:26:12;;;;;;;10.45;5.55;;;;;;;;;;6230385;28;20053;-85
2023/11/27 18:29:14;;;;;;;16.20;8.07;;;;;;;;;;6225381;28;20057;-83
2023/11/27 18:32:18;;;;;;;10.70;5.03;;;;;;;;;;6226476;28;20045;-83